Time;durP1;ratioP1;P1;durP2;ratioP2;P2;SDS_P1;SDS_P2;PMS_P1;PMS_P2;Temp;Humidity;BMP_temperature;BMP_pressure;BME280_temperature;BME280_humidity;BME280_pressure;Samples;Min_cycle;Max_cycle;Signal;HPM_P1;HPM_P2
2022/09/05 00:02:33;;;;;;;;;;;24.60;58.70;;;;;;6250049;28;19935;-41
2022/09/05 00:05:42;;;;;;;;;;;24.40;58.60;;;;;;6233643;28;19932;-41
2022/09/05 00:09:06;;;;;;;;;;;24.90;58.90;;;;;;6240657;28;19935;-42
2022/09/05 00:12:10;;;;;;;;;;;24.50;58.60;;;;;;6230909;28;19931;-41
2022/09/05 00:15:18;;;;;;;;;;;24.80;58.90;;;;;;6252833;28;19930;-42
2022/09/05 00:18:33;;;;;;;;;;;24.60;58.70;;;;;;6251084;28;19940;-40
2022/09/05 00:22:06;;;;;;;;;;;24.70;59.00;;;;;;6238490;28;19932;-43
2022/09/05 00:25:43;;;;;;;;;;;25.00;59.20;;;;;;6238448;28;19984;-41
2022/09/05 00:28:51;;;;;;;;;;;24.70;58.70;;;;;;6252718;28;19960;-40
2022/09/05 00:31:58;;;;;;;;;;;24.50;59.00;;;;;;6251381;28;20781;-45
2022/09/05 00:35:05;;;;;;;;;;;24.90;58.90;;;;;;6251561;28;20016;-40
2022/09/05 00:38:13;;;;;;;;;;;24.90;58.80;;;;;;6251957;28;19987;-40
2022/09/05 00:41:16;;;;;;;;;;;24.50;58.70;;;;;;6235764;28;19973;-41
2022/09/05 00:44:21;;;;;;;;;;;24.60;58.70;;;;;;6248524;28;19932;-41
2022/09/05 00:47:28;;;;;;;;;;;24.70;58.90;;;;;;6234046;28;19945;-43
2022/09/05 00:50:34;;;;;;;;;;;25.00;59.00;;;;;;6237500;28;19977;-43
2022/09/05 00:53:43;;;;;;;;;;;24.90;59.10;;;;;;6259797;28;20759;-40
2022/09/05 00:56:52;;;;;;;;;;;25.00;59.10;;;;;;6248837;28;20727;-39
2022/09/05 01:00:03;;;;;;;;;;;24.60;58.90;;;;;;6226484;28;20171;-39
2022/09/05 01:03:14;;;;;;;;;;;24.70;59.00;;;;;;6228591;28;20219;-40
2022/09/05 01:06:22;;;;;;;;;;;24.80;59.00;;;;;;6248873;28;20272;-40
2022/09/05 01:09:30;;;;;;;;;;;24.50;58.90;;;;;;6247845;28;20521;-40
2022/09/05 01:12:42;;;;;;;;;;;24.50;58.90;;;;;;6247116;28;20632;-40
2022/09/05 01:15:56;;;;;;;;;;;25.10;59.30;;;;;;6249071;28;19932;-39
2022/09/05 01:19:04;;;;;;;;;;;24.90;59.20;;;;;;6245722;28;20756;-40
2022/09/05 01:22:16;;;;;;;;;;;24.50;59.00;;;;;;6243543;28;20353;-40
2022/09/05 01:25:27;;;;;;;;;;;25.20;59.50;;;;;;6251952;28;20892;-41
2022/09/05 01:28:34;;;;;;;;;;;24.90;59.30;;;;;;6238950;28;20661;-40
2022/09/05 01:32:02;;;;;;;;;;;24.90;59.30;;;;;;6237788;28;20183;-39
2022/09/05 01:35:19;;;;;;;;;;;24.60;59.20;;;;;;6252991;28;20362;-40
2022/09/05 01:38:25;;;;;;;;;;;24.70;59.30;;;;;;6236814;28;19961;-40
2022/09/05 01:41:30;;;;;;;;;;;24.50;59.30;;;;;;6251369;28;20153;-40
2022/09/05 01:44:40;;;;;;;;;;;24.80;59.50;;;;;;6247496;28;20036;-40
2022/09/05 01:47:47;;;;;;;;;;;24.70;59.40;;;;;;6248886;28;20702;-40
2022/09/05 01:50:52;;;;;;;;;;;24.80;59.50;;;;;;6242217;28;20568;-40
2022/09/05 01:54:04;;;;;;;;;;;24.40;59.30;;;;;;6244209;28;19928;-40
2022/09/05 01:57:14;;;;;;;;;;;24.90;59.60;;;;;;6227968;28;19932;-40
2022/09/05 02:00:22;;;;;;;;;;;24.70;59.40;;;;;;6245807;28;19932;-40
2022/09/05 02:03:30;;;;;;;;;;;25.00;59.60;;;;;;6241956;28;19991;-41
2022/09/05 02:06:34;;;;;;;;;;;24.30;59.20;;;;;;6248042;28;20354;-41
2022/09/05 02:09:40;;;;;;;;;;;24.50;59.30;;;;;;6245959;28;20031;-40
2022/09/05 02:12:47;;;;;;;;;;;24.60;59.40;;;;;;6243068;28;19927;-40
2022/09/05 02:16:06;;;;;;;;;;;24.50;60.00;;;;;;6247590;28;20310;-40
2022/09/05 02:19:13;;;;;;;;;;;25.00;59.70;;;;;;6245291;28;19928;-40
2022/09/05 02:22:17;;;;;;;;;;;24.90;59.60;;;;;;6248191;28;20461;-40
2022/09/05 02:25:23;;;;;;;;;;;24.70;59.40;;;;;;6228569;28;19938;-40
2022/09/05 02:28:51;;;;;;;;;;;24.50;59.30;;;;;;6229067;28;20338;-39
2022/09/05 02:31:55;;;;;;;;;;;24.80;59.50;;;;;;6252936;28;20649;-41
2022/09/05 02:35:00;;;;;;;;;;;24.90;59.50;;;;;;6243820;28;19965;-43
2022/09/05 02:38:05;;;;;;;;;;;24.70;59.50;;;;;;6252373;28;20830;-40
2022/09/05 02:41:31;;;;;;;;;;;24.70;59.40;;;;;;6229402;28;19932;-40
2022/09/05 02:44:59;;;;;;;;;;;24.70;59.40;;;;;;6244655;28;19940;-43
2022/09/05 02:48:24;;;;;;;;;;;24.90;59.60;;;;;;6246159;28;20684;-42
2022/09/05 02:51:27;;;;;;;;;;;24.50;59.50;;;;;;6256935;28;20705;-40
2022/09/05 02:54:50;;;;;;;;;;;25.40;59.80;;;;;;6244502;28;19940;-41
2022/09/05 02:58:18;;;;;;;;;;;24.40;59.30;;;;;;6244412;28;19932;-44
2022/09/05 03:01:31;;;;;;;;;;;24.60;59.40;;;;;;6257892;28;20846;-40
2022/09/05 03:04:35;;;;;;;;;;;25.10;59.60;;;;;;6258095;28;20703;-40
2022/09/05 03:07:48;;;;;;;;;;;24.70;59.40;;;;;;6250874;28;19953;-40
2022/09/05 03:11:02;;;;;;;;;;;24.60;59.30;;;;;;6259179;28;19971;-42
2022/09/05 03:14:17;;;;;;;;;;;24.60;59.40;;;;;;6259714;28;20039;-40
2022/09/05 03:17:37;;;;;;;;;;;24.40;59.30;;;;;;6259372;28;19932;-40
2022/09/05 03:20:50;;;;;;;;;;;24.90;59.60;;;;;;6259612;28;19928;-39
2022/09/05 03:24:23;;;;;;;;;;;24.60;59.30;;;;;;6260047;28;19932;-41
2022/09/05 03:27:36;;;;;;;;;;;24.70;59.50;;;;;;6255721;28;19962;-40
2022/09/05 03:30:46;;;;;;;;;;;24.90;59.60;;;;;;6242494;28;20868;-42
2022/09/05 03:34:02;;;;;;;;;;;24.90;59.60;;;;;;6259969;28;20884;-42
2022/09/05 03:37:17;;;;;;;;;;;25.00;59.60;;;;;;6234258;28;20770;-41
2022/09/05 03:40:35;;;;;;;;;;;24.90;59.60;;;;;;6250528;28;19932;-44
2022/09/05 03:43:50;;;;;;;;;;;24.50;59.50;;;;;;6252620;28;19924;-39
2022/09/05 03:47:01;;;;;;;;;;;24.70;59.60;;;;;;6256090;28;20806;-41
2022/09/05 03:50:21;;;;;;;;;;;24.90;59.70;;;;;;6254545;28;20799;-42
2022/09/05 03:53:52;;;;;;;;;;;24.60;59.60;;;;;;6240613;28;19924;-41
2022/09/05 03:57:21;;;;;;;;;;;24.40;59.50;;;;;;6242297;28;20789;-40
2022/09/05 04:00:46;;;;;;;;;;;24.70;59.60;;;;;;6241309;28;19932;-42
2022/09/05 04:03:55;;;;;;;;;;;24.50;59.60;;;;;;6257610;28;20652;-40
2022/09/05 04:07:24;;;;;;;;;;;24.80;59.70;;;;;;6243023;28;20909;-40
2022/09/05 04:10:51;;;;;;;;;;;25.10;59.80;;;;;;6235400;28;19935;-40
2022/09/05 04:13:55;;;;;;;;;;;24.90;59.70;;;;;;6256719;28;19960;-40
2022/09/05 04:16:59;;;;;;;;;;;24.50;59.70;;;;;;6256042;28;20026;-42
2022/09/05 04:20:02;;;;;;;;;;;24.90;59.80;;;;;;6252164;28;20006;-40
2022/09/05 04:23:12;;;;;;;;;;;24.50;59.60;;;;;;6236889;28;20182;-40
2022/09/05 04:26:19;;;;;;;;;;;24.80;59.90;;;;;;6254609;28;21254;-42
2022/09/05 04:29:25;;;;;;;;;;;24.80;59.80;;;;;;6257629;28;19935;-39
2022/09/05 04:32:33;;;;;;;;;;;24.80;59.80;;;;;;6263437;28;19924;-40
2022/09/05 04:35:37;;;;;;;;;;;25.00;60.00;;;;;;6260309;28;20806;-40
2022/09/05 04:38:40;;;;;;;;;;;24.70;59.80;;;;;;6258612;28;19924;-40
2022/09/05 04:41:43;;;;;;;;;;;24.80;59.90;;;;;;6257865;28;20746;-41
2022/09/05 04:44:47;;;;;;;;;;;24.50;59.80;;;;;;6253823;28;20864;-40
2022/09/05 04:47:51;;;;;;;;;;;24.50;59.80;;;;;;6255778;28;19932;-40
2022/09/05 04:51:02;;;;;;;;;;;24.80;60.00;;;;;;6256262;28;20007;-40
2022/09/05 04:54:10;;;;;;;;;;;24.40;59.60;;;;;;6259595;28;19963;-39
2022/09/05 04:57:19;;;;;;;;;;;24.70;59.90;;;;;;6257918;28;20063;-40
2022/09/05 05:00:24;;;;;;;;;;;24.40;59.70;;;;;;6252827;28;20743;-41
2022/09/05 05:03:46;;;;;;;;;;;24.80;59.90;;;;;;6242905;28;20660;-41
2022/09/05 05:07:12;;;;;;;;;;;24.70;59.90;;;;;;6239752;28;19932;-41
2022/09/05 05:10:19;;;;;;;;;;;24.70;60.00;;;;;;6260946;28;20652;-40
2022/09/05 05:13:42;;;;;;;;;;;24.60;59.90;;;;;;6243990;28;20002;-40
2022/09/05 05:17:06;;;;;;;;;;;24.70;60.00;;;;;;6223945;28;19940;-41
2022/09/05 05:20:30;;;;;;;;;;;24.30;59.80;;;;;;6223709;28;20018;-42
2022/09/05 05:23:47;;;;;;;;;;;24.70;60.10;;;;;;6253303;28;20002;-40
2022/09/05 05:26:50;;;;;;;;;;;24.80;60.20;;;;;;6256727;28;19932;-42
2022/09/05 05:30:00;;;;;;;;;;;24.80;60.10;;;;;;6257405;28;19978;-42
2022/09/05 05:33:07;;;;;;;;;;;24.30;59.80;;;;;;6248198;28;20055;-40
2022/09/05 05:36:13;;;;;;;;;;;24.40;60.00;;;;;;6237566;28;20043;-41
2022/09/05 05:39:20;;;;;;;;;;;24.50;60.10;;;;;;6245258;28;19975;-40
2022/09/05 05:42:22;;;;;;;;;;;24.30;60.00;;;;;;6253215;28;19976;-40
2022/09/05 05:45:25;;;;;;;;;;;24.70;60.30;;;;;;6236811;28;20036;-43
2022/09/05 05:48:30;;;;;;;;;;;24.60;60.20;;;;;;6250431;28;20048;-40
2022/09/05 05:51:38;;;;;;;;;;;24.50;60.10;;;;;;6243032;28;20041;-40
2022/09/05 05:55:02;;;;;;;;;;;24.60;60.10;;;;;;6230844;28;19978;-40
2022/09/05 05:58:29;;;;;;;;;;;25.00;60.40;;;;;;6231795;28;19932;-47
2022/09/05 06:01:48;;;;;;;;;;;24.50;60.30;;;;;;6240252;28;21576;-44
2022/09/05 06:05:04;;;;;;;;;;;24.80;61.00;;;;;;6238744;28;20932;-40
2022/09/05 06:08:19;;;;;;;;;;;24.70;60.30;;;;;;6214228;28;19932;-40
2022/09/05 06:11:52;;;;;;;;;;;24.70;60.30;;;;;;6220048;28;20001;-42
2022/09/05 06:15:28;;;;;;;;;;;24.60;60.30;;;;;;6222700;28;19939;-42
2022/09/05 06:18:43;;;;;;;;;;;24.70;60.40;;;;;;6212432;28;19932;-42
2022/09/05 06:22:01;;;;;;;;;;;24.60;60.30;;;;;;6228032;28;19932;-42
2022/09/05 06:25:29;;;;;;;;;;;24.50;60.30;;;;;;6193763;28;19932;-40
2022/09/05 06:28:36;;;;;;;;;;;24.50;60.30;;;;;;6176283;28;20067;-43
2022/09/05 06:31:45;;;;;;;;;;;24.70;60.40;;;;;;6214374;28;19936;-41
2022/09/05 06:35:03;;;;;;;;;;;24.20;60.10;;;;;;6220302;28;19932;-41
2022/09/05 06:38:20;;;;;;;;;;;24.70;60.40;;;;;;6205508;28;19966;-41
2022/09/05 06:41:27;;;;;;;;;;;24.60;60.40;;;;;;6176226;28;19943;-40
2022/09/05 06:44:36;;;;;;;;;;;24.80;60.50;;;;;;6160051;28;19947;-42
2022/09/05 06:47:40;;;;;;;;;;;24.50;60.30;;;;;;6175493;28;19932;-42
2022/09/05 06:50:53;;;;;;;;;;;24.70;60.20;;;;;;6173597;28;20371;-42
2022/09/05 06:54:21;;;;;;;;;;;24.30;60.10;;;;;;6168965;28;19998;-42
2022/09/05 06:57:32;;;;;;;;;;;24.70;60.40;;;;;;6155226;28;19979;-44
2022/09/05 07:00:37;;;;;;;;;;;24.60;60.50;;;;;;6132836;28;19932;-43
2022/09/05 07:03:49;;;;;;;;;;;24.50;60.20;;;;;;6110258;28;19932;-44
2022/09/05 07:07:02;;;;;;;;;;;24.60;60.70;;;;;;6061246;28;19976;-41
2022/09/05 07:10:13;;;;;;;;;;;24.80;60.60;;;;;;6061313;28;19957;-42
2022/09/05 07:13:37;;;;;;;;;;;24.60;60.50;;;;;;6050099;28;19995;-40
2022/09/05 07:16:49;;;;;;;;;;;24.80;60.50;;;;;;6034239;28;21451;-39
2022/09/05 07:19:54;;;;;;;;;;;24.70;60.60;;;;;;6029493;28;19932;-39
2022/09/05 07:23:03;;;;;;;;;;;24.70;60.10;;;;;;6024399;28;23731;-40
2022/09/05 07:26:25;;;;;;;;;;;24.40;60.80;;;;;;5933411;28;30526;-41
2022/09/05 07:29:47;;;;;;;;;;;24.70;60.30;;;;;;5983805;28;20874;-41
2022/09/05 07:33:03;;;;;;;;;;;24.80;60.50;;;;;;5960449;28;23686;-41
2022/09/05 07:36:07;;;;;;;;;;;24.90;60.30;;;;;;5960890;28;20248;-41
2022/09/05 07:39:12;;;;;;;;;;;24.50;59.90;;;;;;6021000;28;30393;-42
2022/09/05 07:42:31;;;;;;;;;;;24.90;60.20;;;;;;6012735;28;31138;-41
2022/09/05 07:45:35;;;;;;;;;;;24.70;60.10;;;;;;6021818;28;26043;-39
2022/09/05 07:48:42;;;;;;;;;;;25.00;60.20;;;;;;6040262;28;19965;-39
2022/09/05 07:51:47;;;;;;;;;;;24.50;60.10;;;;;;6009898;28;23717;-42
2022/09/05 07:55:17;;;;;;;;;;;25.10;60.50;;;;;;5956597;28;19933;-42
2022/09/05 07:58:42;;;;;;;;;;;24.80;60.30;;;;;;5982778;28;22352;-43
2022/09/05 08:01:45;;;;;;;;;;;24.90;60.50;;;;;;5982411;28;30347;-42
2022/09/05 08:04:47;;;;;;;;;;;24.80;60.30;;;;;;5950564;28;29905;-43
2022/09/05 08:07:50;;;;;;;;;;;24.90;60.30;;;;;;5984991;28;21181;-43
2022/09/05 08:10:55;;;;;;;;;;;25.00;60.50;;;;;;5976988;28;20984;-43
2022/09/05 08:14:23;;;;;;;;;;;25.00;60.30;;;;;;5993166;28;21204;-43
2022/09/05 08:17:51;;;;;;;;;;;24.60;60.10;;;;;;5971487;28;20591;-41
2022/09/05 08:20:55;;;;;;;;;;;24.40;60.00;;;;;;6011115;28;22056;-43
2022/09/05 08:24:01;;;;;;;;;;;24.90;60.10;;;;;;6044836;28;21523;-42
2022/09/05 08:27:17;;;;;;;;;;;24.70;60.10;;;;;;6001738;28;21583;-43
2022/09/05 08:30:18;;;;;;;;;;;24.90;60.60;;;;;;6022669;28;20124;-42
2022/09/05 08:33:31;;;;;;;;;;;24.80;60.00;;;;;;6039060;28;19982;-42
2022/09/05 08:36:40;;;;;;;;;;;24.70;59.90;;;;;;6074055;28;19938;-45
2022/09/05 08:39:42;;;;;;;;;;;25.10;60.30;;;;;;6034906;28;29160;-42
2022/09/05 08:42:47;;;;;;;;;;;25.00;60.20;;;;;;6029958;28;21053;-45
2022/09/05 08:46:12;;;;;;;;;;;24.90;60.10;;;;;;6000876;28;20716;-41
2022/09/05 08:49:44;;;;;;;;;;;25.10;60.20;;;;;;5995960;28;21315;-43
2022/09/05 08:52:53;;;;;;;;;;;25.10;60.40;;;;;;5990811;28;27985;-42
2022/09/05 08:55:58;;;;;;;;;;;25.00;60.30;;;;;;6022276;28;19932;-41
2022/09/05 08:59:05;;;;;;;;;;;25.30;60.40;;;;;;6002614;28;23756;-45
2022/09/05 09:02:41;;;;;;;;;;;24.90;60.30;;;;;;5936391;28;29639;-43
2022/09/05 09:06:11;;;;;;;;;;;25.30;60.40;;;;;;5980282;28;31715;-40
2022/09/05 09:09:19;;;;;;;;;;;25.10;60.20;;;;;;5985916;28;23337;-41
2022/09/05 09:12:31;;;;;;;;;;;25.20;60.10;;;;;;5977381;28;25278;-42
2022/09/05 09:15:36;;;;;;;;;;;25.30;60.10;;;;;;6011550;28;30089;-42
2022/09/05 09:18:40;;;;;;;;;;;24.80;60.00;;;;;;6021791;28;20946;-42
2022/09/05 09:21:46;;;;;;;;;;;24.40;59.70;;;;;;5996732;28;22304;-41
2022/09/05 09:24:52;;;;;;;;;;;25.20;60.10;;;;;;5958248;28;23386;-42
2022/09/05 09:28:34;;;;;;;;;;;24.90;60.00;;;;;;5937712;28;30851;-42
2022/09/05 09:32:02;;;;;;;;;;;24.70;59.80;;;;;;5946373;28;41417;-40
2022/09/05 09:35:06;;;;;;;;;;;24.70;59.80;;;;;;5992993;28;21654;-42
2022/09/05 09:38:14;;;;;;;;;;;25.10;60.20;;;;;;5978742;28;25837;-41
2022/09/05 09:41:30;;;;;;;;;;;25.00;60.10;;;;;;5951136;28;25238;-41
2022/09/05 09:44:42;;;;;;;;;;;24.90;60.10;;;;;;5927387;28;22087;-44
2022/09/05 09:47:54;;;;;;;;;;;24.70;60.10;;;;;;5977172;28;19932;-40
2022/09/05 09:51:01;;;;;;;;;;;24.70;60.30;;;;;;5981978;28;21748;-42
2022/09/05 09:54:19;;;;;;;;;;;25.00;60.30;;;;;;6004184;28;20080;-44
2022/09/05 09:57:32;;;;;;;;;;;24.70;60.00;;;;;;6000022;28;34525;-41
2022/09/05 10:00:42;;;;;;;;;;;25.20;60.40;;;;;;5996827;28;30485;-41
2022/09/05 10:03:56;;;;;;;;;;;25.20;60.20;;;;;;6004772;28;19932;-43
2022/09/05 10:07:32;;;;;;;;;;;25.00;60.20;;;;;;5975926;28;19932;-41
2022/09/05 10:11:08;;;;;;;;;;;25.20;60.40;;;;;;5921794;28;22102;-40
2022/09/05 10:14:45;;;;;;;;;;;25.10;60.40;;;;;;5973508;28;19939;-41
2022/09/05 10:18:13;;;;;;;;;;;24.80;60.20;;;;;;6017304;28;20735;-41
2022/09/05 10:21:23;;;;;;;;;;;24.80;60.20;;;;;;6025431;28;20223;-41
2022/09/05 10:24:33;;;;;;;;;;;25.00;60.20;;;;;;6066196;28;19932;-42
2022/09/05 10:27:37;;;;;;;;;;;25.00;60.30;;;;;;6065809;28;19939;-41
2022/09/05 10:30:49;;;;;;;;;;;25.20;60.40;;;;;;6035340;28;19932;-41
2022/09/05 10:34:17;;;;;;;;;;;25.00;60.30;;;;;;6050704;28;20071;-41
2022/09/05 10:37:41;;;;;;;;;;;25.10;60.00;;;;;;6053284;28;19932;-41
2022/09/05 10:40:44;;;;;;;;;;;25.00;60.10;;;;;;6086255;28;19943;-41
2022/09/05 10:44:10;;;;;;;;;;;25.30;60.30;;;;;;6091375;28;19968;-41
2022/09/05 10:47:17;;;;;;;;;;;25.00;60.00;;;;;;6090778;28;19932;-42
2022/09/05 10:50:25;;;;;;;;;;;24.80;59.80;;;;;;6138862;28;19990;-40
2022/09/05 10:53:35;;;;;;;;;;;25.60;60.60;;;;;;6095329;28;20106;-41
2022/09/05 10:56:43;;;;;;;;;;;25.10;60.00;;;;;;6102818;28;20008;-42
2022/09/05 10:59:55;;;;;;;;;;;25.20;60.10;;;;;;6097273;28;19932;-41
2022/09/05 11:03:21;;;;;;;;;;;25.30;60.10;;;;;;6081846;28;20078;-41
2022/09/05 11:06:33;;;;;;;;;;;25.10;60.10;;;;;;6111756;28;19932;-41
2022/09/05 11:09:43;;;;;;;;;;;25.00;59.70;;;;;;6103046;28;20156;-43
2022/09/05 11:12:54;;;;;;;;;;;24.90;60.20;;;;;;6117169;28;20065;-40
2022/09/05 11:16:03;;;;;;;;;;;25.30;59.90;;;;;;6132945;28;25951;-40
2022/09/05 11:19:15;;;;;;;;;;;25.20;60.00;;;;;;6114205;28;23141;-41
2022/09/05 11:22:18;;;;;;;;;;;25.30;60.00;;;;;;6129380;28;19932;-40
2022/09/05 11:25:27;;;;;;;;;;;25.30;60.00;;;;;;5798386;28;20039;-42
2022/09/05 11:28:48;;;;;;;;;;;25.10;59.70;;;;;;6161246;28;19964;-41
2022/09/05 11:32:11;;;;;;;;;;;25.00;59.50;;;;;;6091874;28;19940;-41
2022/09/05 11:35:35;;;;;;;;;;;25.30;59.50;;;;;;6101230;28;20035;-41
2022/09/05 11:38:59;;;;;;;;;;;25.40;59.60;;;;;;6061607;28;19932;-43
2022/09/05 11:42:28;;;;;;;;;;;25.60;59.80;;;;;;6066767;28;20014;-43
2022/09/05 11:45:41;;;;;;;;;;;25.30;59.60;;;;;;6050441;28;24782;-42
2022/09/05 11:48:50;;;;;;;;;;;25.40;59.30;;;;;;6073053;28;31855;-44
2022/09/05 11:52:05;;;;;;;;;;;25.50;59.50;;;;;;6086267;28;20170;-40
2022/09/05 11:55:21;;;;;;;;;;;25.50;59.40;;;;;;6057476;28;27539;-40
2022/09/05 11:58:40;;;;;;;;;;;25.20;59.10;;;;;;6026771;28;20175;-43
2022/09/05 12:01:55;;;;;;;;;;;25.70;59.20;;;;;;6030856;28;20628;-42
2022/09/05 12:05:29;;;;;;;;;;;25.30;59.20;;;;;;5885128;28;31116;-43
2022/09/05 12:08:53;;;;;;;;;;;25.60;59.20;;;;;;5975218;28;28984;-41
2022/09/05 12:12:05;;;;;;;;;;;25.50;59.30;;;;;;5921673;28;22153;-42
2022/09/05 12:15:24;;;;;;;;;;;25.60;59.30;;;;;;5946011;28;23139;-41
2022/09/05 12:18:31;;;;;;;;;;;25.50;59.20;;;;;;5929716;28;30322;-41
2022/09/05 12:21:35;;;;;;;;;;;25.80;59.30;;;;;;5958230;28;21765;-40
2022/09/05 12:24:43;;;;;;;;;;;25.60;59.20;;;;;;5967579;28;30793;-41
2022/09/05 12:28:07;;;;;;;;;;;25.80;59.20;;;;;;5978375;28;20059;-40
2022/09/05 12:31:33;;;;;;;;;;;25.50;59.10;;;;;;5966720;28;19975;-42
2022/09/05 12:34:55;;;;;;;;;;;25.50;59.10;;;;;;5948340;28;31752;-44
2022/09/05 12:38:25;;;;;;;;;;;25.80;59.30;;;;;;5957794;28;22744;-40
2022/09/05 12:41:49;;;;;;;;;;;25.50;58.90;;;;;;5962834;28;19936;-40
2022/09/05 12:45:17;;;;;;;;;;;25.40;58.90;;;;;;5961342;28;20951;-41
2022/09/05 12:48:26;;;;;;;;;;;25.90;59.20;;;;;;5967087;28;20375;-43
2022/09/05 12:51:45;;;;;;;;;;;25.70;59.00;;;;;;5996463;28;21002;-41
2022/09/05 12:54:53;;;;;;;;;;;25.80;59.20;;;;;;6014538;28;22559;-41
2022/09/05 12:57:59;;;;;;;;;;;25.90;59.10;;;;;;5976625;28;20369;-41
2022/09/05 13:01:24;;;;;;;;;;;25.40;58.60;;;;;;5899936;28;31948;-40
2022/09/05 13:04:47;;;;;;;;;;;25.50;58.70;;;;;;5938460;28;24235;-40
2022/09/05 13:08:02;;;;;;;;;;;25.90;58.90;;;;;;5964256;28;22550;-41
2022/09/05 13:11:07;;;;;;;;;;;25.60;58.80;;;;;;5961933;28;21935;-41
2022/09/05 13:14:31;;;;;;;;;;;25.80;58.90;;;;;;5894573;28;23297;-40
2022/09/05 13:17:58;;;;;;;;;;;25.60;58.70;;;;;;5920496;28;19932;-40
2022/09/05 13:21:04;;;;;;;;;;;25.80;58.80;;;;;;5944709;28;29315;-40
2022/09/05 13:24:10;;;;;;;;;;;25.90;58.70;;;;;;5973776;28;24010;-40
2022/09/05 13:27:13;;;;;;;;;;;26.00;58.90;;;;;;6001408;28;20030;-40
2022/09/05 13:30:15;;;;;;;;;;;25.60;58.60;;;;;;5972588;28;22441;-40
2022/09/05 13:33:43;;;;;;;;;;;25.80;58.70;;;;;;5961186;28;35229;-40
2022/09/05 13:37:10;;;;;;;;;;;25.80;58.90;;;;;;5923238;28;29738;-40
2022/09/05 13:40:36;;;;;;;;;;;25.80;58.80;;;;;;5938788;28;21932;-40
2022/09/05 13:43:38;;;;;;;;;;;25.80;59.00;;;;;;5983031;28;21872;-40
2022/09/05 13:46:43;;;;;;;;;;;25.80;58.80;;;;;;5983968;28;23223;-40
2022/09/05 13:49:48;;;;;;;;;;;25.70;58.80;;;;;;5998321;28;24962;-41
2022/09/05 13:52:57;;;;;;;;;;;25.40;58.60;;;;;;5978058;28;22863;-40
2022/09/05 13:56:13;;;;;;;;;;;25.60;58.70;;;;;;5943083;28;29636;-41
2022/09/05 13:59:15;;;;;;;;;;;25.70;58.80;;;;;;5986908;28;21913;-40
2022/09/05 14:02:27;;;;;;;;;;;25.70;58.90;;;;;;5954263;28;27777;-40
2022/09/05 14:05:32;;;;;;;;;;;25.50;59.10;;;;;;5949588;28;22255;-40
2022/09/05 14:08:41;;;;;;;;;;;25.40;58.60;;;;;;5983885;28;20691;-40
2022/09/05 14:11:54;;;;;;;;;;;25.60;58.80;;;;;;5957114;28;19932;-40
2022/09/05 14:14:57;;;;;;;;;;;25.80;59.00;;;;;;5981305;28;19932;-40
2022/09/05 14:18:16;;;;;;;;;;;25.70;59.00;;;;;;6003854;28;19939;-41
2022/09/05 14:21:25;;;;;;;;;;;25.80;58.90;;;;;;5976229;28;20029;-42
2022/09/05 14:24:28;;;;;;;;;;;25.40;59.30;;;;;;5973108;28;19981;-40
2022/09/05 14:27:30;;;;;;;;;;;25.70;59.00;;;;;;5937419;28;24464;-40
2022/09/05 14:30:37;;;;;;;;;;;25.30;58.70;;;;;;5952521;28;25371;-40
2022/09/05 14:34:08;;;;;;;;;;;25.70;58.90;;;;;;5962702;28;21312;-41
2022/09/05 14:37:39;;;;;;;;;;;25.60;58.80;;;;;;5953263;28;21543;-40
2022/09/05 14:41:16;;;;;;;;;;;25.70;59.00;;;;;;5958337;28;19932;-41
2022/09/05 14:44:24;;;;;;;;;;;25.70;59.00;;;;;;5955414;28;20440;-40
2022/09/05 14:47:38;;;;;;;;;;;25.00;58.50;;;;;;5974626;28;19940;-40
2022/09/05 14:50:52;;;;;;;;;;;25.40;59.00;;;;;;5989510;28;28236;-40
2022/09/05 14:53:56;;;;;;;;;;;25.70;58.90;;;;;;5991355;28;30713;-40
2022/09/05 14:57:01;;;;;;;;;;;25.70;59.00;;;;;;6011217;28;19931;-41
2022/09/05 15:00:23;;;;;;;;;;;25.60;58.80;;;;;;5912052;28;20962;-40
2022/09/05 15:03:47;;;;;;;;;;;25.50;58.70;;;;;;5898403;28;30436;-40
2022/09/05 15:07:18;;;;;;;;;;;25.20;58.60;;;;;;5911152;28;27967;-40
2022/09/05 15:10:29;;;;;;;;;;;25.70;58.90;;;;;;5999435;28;21317;-40
2022/09/05 15:13:55;;;;;;;;;;;25.40;58.70;;;;;;5982027;28;19932;-40
2022/09/05 15:16:59;;;;;;;;;;;25.50;58.70;;;;;;5987773;28;20014;-40
2022/09/05 15:20:04;;;;;;;;;;;25.10;58.40;;;;;;5970023;28;19948;-41
2022/09/05 15:23:13;;;;;;;;;;;25.60;58.70;;;;;;5953396;28;28165;-41
2022/09/05 15:26:19;;;;;;;;;;;25.10;58.40;;;;;;5980813;28;24493;-40
2022/09/05 15:29:28;;;;;;;;;;;25.30;58.50;;;;;;5976177;28;24023;-41
2022/09/05 15:32:31;;;;;;;;;;;25.30;58.50;;;;;;5950738;28;29208;-41
2022/09/05 15:35:34;;;;;;;;;;;25.60;58.80;;;;;;5980123;28;22342;-43
2022/09/05 15:38:37;;;;;;;;;;;25.30;58.50;;;;;;6009401;28;20925;-40
2022/09/05 15:41:58;;;;;;;;;;;25.60;58.70;;;;;;6075013;28;20047;-40
2022/09/05 15:45:00;;;;;;;;;;;25.50;58.60;;;;;;6085916;28;19932;-40
2022/09/05 15:48:21;;;;;;;;;;;25.70;58.80;;;;;;6058238;28;19997;-42
2022/09/05 15:51:33;;;;;;;;;;;25.20;58.30;;;;;;6040019;28;19963;-41
2022/09/05 15:54:37;;;;;;;;;;;25.60;59.10;;;;;;6051575;28;19932;-42
2022/09/05 15:57:45;;;;;;;;;;;25.50;58.50;;;;;;6049080;28;19940;-41
2022/09/05 16:00:48;;;;;;;;;;;25.60;59.10;;;;;;6046574;28;19972;-41
2022/09/05 16:03:53;;;;;;;;;;;25.30;58.30;;;;;;6075322;28;20024;-40
2022/09/05 16:07:17;;;;;;;;;;;25.60;58.50;;;;;;6052741;28;19935;-41
2022/09/05 16:10:38;;;;;;;;;;;25.60;58.50;;;;;;6098880;28;20071;-40
2022/09/05 16:14:14;;;;;;;;;;;25.60;58.50;;;;;;6124705;28;20299;-40
2022/09/05 16:17:21;;;;;;;;;;;25.40;58.20;;;;;;6092207;28;19939;-40
2022/09/05 16:20:45;;;;;;;;;;;25.70;58.50;;;;;;6121798;28;20058;-40
2022/09/05 16:24:10;;;;;;;;;;;25.50;58.40;;;;;;6128854;28;19932;-42
2022/09/05 16:27:15;;;;;;;;;;;25.80;58.60;;;;;;6161076;28;19933;-41
2022/09/05 16:30:21;;;;;;;;;;;25.60;58.30;;;;;;6148963;28;20077;-40
2022/09/05 16:33:24;;;;;;;;;;;25.70;58.30;;;;;;6168783;28;19936;-41
2022/09/05 16:36:28;;;;;;;;;;;25.40;58.00;;;;;;6179113;28;19933;-40
2022/09/05 16:39:32;;;;;;;;;;;25.10;57.80;;;;;;6157034;28;20066;-40
2022/09/05 16:42:37;;;;;;;;;;;25.40;58.00;;;;;;6196695;28;19932;-41
2022/09/05 16:45:51;;;;;;;;;;;25.60;58.10;;;;;;6196794;28;19939;-41
2022/09/05 16:48:54;;;;;;;;;;;25.50;58.10;;;;;;6202331;28;19938;-40
2022/09/05 16:51:59;;;;;;;;;;;25.80;58.30;;;;;;6185926;28;21657;-41
2022/09/05 16:55:05;;;;;;;;;;;26.00;58.40;;;;;;6171178;28;19932;-44
2022/09/05 16:58:10;;;;;;;;;;;25.20;57.80;;;;;;6200650;28;19938;-41
2022/09/05 17:01:29;;;;;;;;;;;25.70;58.20;;;;;;6191519;28;19939;-40
2022/09/05 17:04:34;;;;;;;;;;;25.70;58.20;;;;;;6208639;28;19939;-40
2022/09/05 17:07:46;;;;;;;;;;;25.50;58.00;;;;;;6204897;28;20342;-40
2022/09/05 17:10:48;;;;;;;;;;;25.40;57.90;;;;;;6210266;28;20050;-42
2022/09/05 17:14:05;;;;;;;;;;;25.50;58.10;;;;;;6191674;28;19932;-41
2022/09/05 17:17:13;;;;;;;;;;;25.70;58.20;;;;;;6194095;28;19932;-40
2022/09/05 17:20:36;;;;;;;;;;;25.30;57.80;;;;;;6191777;28;20999;-40
2022/09/05 17:23:40;;;;;;;;;;;25.90;58.30;;;;;;6213278;28;19969;-42
2022/09/05 17:27:12;;;;;;;;;;;25.30;57.80;;;;;;6186356;28;20108;-41
2022/09/05 17:30:55;;;;;;;;;;;25.70;58.10;;;;;;6186391;28;20036;-41
2022/09/05 17:34:30;;;;;;;;;;;25.60;58.10;;;;;;6208723;28;20324;-44
2022/09/05 17:37:40;;;;;;;;;;;25.30;57.80;;;;;;6227744;28;20058;-41
2022/09/05 17:40:59;;;;;;;;;;;25.40;58.00;;;;;;6208700;28;20450;-44
2022/09/05 17:44:04;;;;;;;;;;;25.20;57.80;;;;;;6210246;28;20249;-41
2022/09/05 17:47:10;;;;;;;;;;;25.50;58.10;;;;;;6219344;28;19975;-40
2022/09/05 17:50:17;;;;;;;;;;;25.60;58.10;;;;;;6214841;28;20046;-40
2022/09/05 17:53:19;;;;;;;;;;;25.50;58.10;;;;;;6216006;28;19932;-41
2022/09/05 17:56:32;;;;;;;;;;;25.70;58.10;;;;;;6221066;28;20021;-38
2022/09/05 17:59:35;;;;;;;;;;;25.50;58.00;;;;;;6211783;28;19940;-38
2022/09/05 18:02:51;;;;;;;;;;;25.80;58.30;;;;;;6235878;28;19935;-38
2022/09/05 18:05:57;;;;;;;;;;;25.50;58.10;;;;;;6232440;28;20811;-42
2022/09/05 18:09:03;;;;;;;;;;;25.40;57.90;;;;;;6224549;28;20475;-38
2022/09/05 18:12:12;;;;;;;;;;;25.50;58.00;;;;;;6231471;28;20498;-38
2022/09/05 18:15:48;;;;;;;;;;;25.50;58.00;;;;;;6226537;28;19935;-38
2022/09/05 18:18:51;;;;;;;;;;;25.40;58.00;;;;;;6230819;28;19928;-40
2022/09/05 18:22:20;;;;;;;;;;;25.30;57.90;;;;;;6216767;28;19928;-38
2022/09/05 18:25:27;;;;;;;;;;;25.50;58.10;;;;;;6238321;28;19935;-38
2022/09/05 18:28:41;;;;;;;;;;;25.50;58.10;;;;;;6241251;28;19994;-38
2022/09/05 18:32:00;;;;;;;;;;;25.20;57.80;;;;;;6232158;28;19932;-41
2022/09/05 18:35:19;;;;;;;;;;;25.20;57.80;;;;;;6216572;28;19945;-41
2022/09/05 18:38:39;;;;;;;;;;;25.50;58.00;;;;;;6229949;28;19988;-41
2022/09/05 18:41:55;;;;;;;;;;;25.40;58.10;;;;;;6240693;28;20045;-41
2022/09/05 18:45:10;;;;;;;;;;;25.70;58.20;;;;;;6238483;28;19933;-42